Time;durP1;ratioP1;P1;durP2;ratioP2;P2;SDS_P1;SDS_P2;PMS_P1;PMS_P2;Temp;Humidity;BMP_temperature;BMP_pressure;BME280_temperature;BME280_humidity;BME280_pressure;Samples;Min_cycle;Max_cycle;Signal;HPM_P1;HPM_P2
2022/11/30 00:00:31;;;;;;;37.65;25.67;;;;;;;6.43;87.86;101211.66;5006977;28;20493;-74
2022/11/30 00:02:57;;;;;;;36.92;24.75;;;;;;;6.44;86.89;101209.06;5002624;28;20472;-74
2022/11/30 00:05:22;;;;;;;35.85;23.73;;;;;;;6.39;87.15;101218.56;5002159;28;20029;-74
2022/11/30 00:07:48;;;;;;;36.05;23.55;;;;;;;6.35;87.30;101219.38;5010187;28;20502;-74
2022/11/30 00:10:13;;;;;;;39.25;25.75;;;;;;;6.38;87.22;101214.19;5002287;28;20172;-74
2022/11/30 00:12:42;;;;;;;36.75;24.00;;;;;;;6.36;87.20;101218.50;5002725;28;20109;-74
2022/11/30 00:15:13;;;;;;;35.90;23.75;;;;;;;6.35;87.77;101214.13;5003480;28;20408;-74
2022/11/30 00:17:44;;;;;;;35.85;23.92;;;;;;;6.36;87.43;101222.00;5000279;28;20053;-74
2022/11/30 00:20:10;;;;;;;37.97;24.73;;;;;;;6.35;86.79;101227.22;5000600;28;20089;-74
2022/11/30 00:22:36;;;;;;;36.63;24.33;;;;;;;6.31;87.62;101222.75;5001867;28;20030;-74
2022/11/30 00:25:03;;;;;;;34.83;23.60;;;;;;;6.34;87.32;101223.72;5002382;28;20030;-74
2022/11/30 00:27:30;;;;;;;34.65;22.42;;;;;;;6.35;87.06;101225.47;4999894;28;20065;-74
2022/11/30 00:29:56;;;;;;;40.22;26.75;;;;;;;6.39;86.93;101231.66;5003153;28;20041;-74
2022/11/30 00:32:21;;;;;;;33.80;21.38;;;;;;;6.39;87.25;101236.03;5000119;28;20101;-74
2022/11/30 00:34:47;;;;;;;34.80;23.25;;;;;;;6.41;86.67;101237.84;5002823;28;20037;-74
2022/11/30 00:37:13;;;;;;;36.25;23.65;;;;;;;6.36;86.22;101235.09;5003162;28;20042;-74
2022/11/30 00:39:38;;;;;;;34.45;23.58;;;;;;;6.32;87.20;101227.16;5001097;28;20038;-74
2022/11/30 00:42:03;;;;;;;36.15;23.17;;;;;;;6.28;86.77;101227.94;5002383;28;20092;-74
2022/11/30 00:44:29;;;;;;;33.22;21.15;;;;;;;6.24;87.09;101228.72;4999832;28;20662;-74
2022/11/30 00:46:54;;;;;;;33.97;23.42;;;;;;;6.24;87.15;101228.72;5009997;28;20069;-74
2022/11/30 00:49:19;;;;;;;33.40;22.50;;;;;;;6.26;86.93;101233.16;5000132;28;20038;-74
2022/11/30 00:51:45;;;;;;;32.50;21.58;;;;;;;6.26;86.86;101242.72;4968175;28;20150;-74
2022/11/30 00:54:10;;;;;;;36.72;23.77;;;;;;;6.21;87.04;101232.16;5001356;28;20077;-74
2022/11/30 00:56:35;;;;;;;36.85;24.95;;;;;;;6.15;86.69;101232.00;5001476;28;20509;-74
2022/11/30 00:59:01;;;;;;;37.22;23.40;;;;;;;6.18;87.58;101231.19;5009503;28;20452;-74
2022/11/30 01:01:26;;;;;;;37.90;25.77;;;;;;;6.18;86.98;101237.31;5008412;28;20034;-74
2022/11/30 01:03:51;;;;;;;37.95;22.92;;;;;;;6.14;87.16;101228.50;5008314;28;20074;-74
2022/11/30 01:06:17;;;;;;;34.25;23.27;;;;;;;6.18;87.13;101233.81;5002480;28;20038;-74
2022/11/30 01:08:42;;;;;;;32.67;23.02;;;;;;;6.18;86.89;101229.44;5002061;28;20089;-74
2022/11/30 01:11:13;;;;;;;34.33;23.33;;;;;;;6.15;86.66;101230.25;5011507;28;20038;-74
2022/11/30 01:13:38;;;;;;;34.88;24.08;;;;;;;6.12;86.50;101231.94;5003355;28;20065;-74
2022/11/30 01:16:08;;;;;;;36.03;23.40;;;;;;;6.07;87.13;101241.44;5001779;28;20045;-74
2022/11/30 01:18:36;;;;;;;36.90;24.00;;;;;;;6.02;86.96;101240.44;5001470;28;20042;-74
2022/11/30 01:21:05;;;;;;;36.08;24.27;;;;;;;5.99;87.70;101233.38;5001380;28;20041;-74
2022/11/30 01:23:31;;;;;;;34.80;23.40;;;;;;;5.97;87.74;101240.31;4981947;28;20413;-74
2022/11/30 01:25:56;;;;;;;35.00;24.25;;;;;;;5.96;87.85;101232.44;5002690;28;20034;-74
2022/11/30 01:28:21;;;;;;;34.22;22.75;;;;;;;5.93;87.63;101238.47;5002160;28;20124;-74
2022/11/30 01:30:57;;;;;;;35.28;23.05;;;;;;;5.90;87.71;101238.38;5000356;28;20097;-74
2022/11/30 01:33:22;;;;;;;37.13;21.92;;;;;;;5.88;88.14;101240.09;4982019;28;20031;-74
2022/11/30 01:35:48;;;;;;;33.45;22.88;;;;;;;5.88;87.50;101229.59;4999064;28;20072;-74
2022/11/30 01:38:13;;;;;;;35.28;21.55;;;;;;;5.85;88.10;101233.03;5002759;28;20049;-74
2022/11/30 01:40:38;;;;;;;35.22;22.85;;;;;;;5.80;87.81;101236.41;5003604;28;20124;-74
2022/11/30 01:43:10;;;;;;;34.10;23.25;;;;;;;5.86;88.14;101239.16;5004519;28;20129;-74
2022/11/30 01:45:35;;;;;;;35.08;22.80;;;;;;;5.90;87.55;101235.78;5008237;28;20038;-74
2022/11/30 01:48:01;;;;;;;37.85;23.85;;;;;;;5.87;87.78;101235.69;5005078;28;20050;-74
2022/11/30 01:50:32;;;;;;;32.83;21.55;;;;;;;5.86;87.99;101234.78;5006404;28;20409;-74
2022/11/30 01:52:57;;;;;;;33.63;22.27;;;;;;;5.82;88.09;101229.47;5004321;28;20030;-74
2022/11/30 01:55:28;;;;;;;33.20;20.85;;;;;;;5.83;87.65;101233.84;5006304;28;20040;-74
2022/11/30 01:57:58;;;;;;;32.13;20.90;;;;;;;5.83;87.85;101228.59;5002407;28;20131;-74
2022/11/30 02:00:23;;;;;;;34.53;21.50;;;;;;;5.80;87.97;101232.03;5004977;28;20046;-74
2022/11/30 02:03:01;;;;;;;33.15;21.33;;;;;;;5.80;88.18;101225.91;5003551;28;20130;-74
2022/11/30 02:05:27;;;;;;;31.10;21.40;;;;;;;5.77;88.67;101226.72;5002436;28;20025;-74
2022/11/30 02:07:53;;;;;;;34.17;21.95;;;;;;;5.76;89.03;101224.06;5002751;28;20045;-74
2022/11/30 02:10:30;;;;;;;36.30;23.50;;;;;;;5.74;88.03;101223.13;4986894;28;20103;-74
2022/11/30 02:13:12;;;;;;;30.92;21.90;;;;;;;5.69;88.80;101228.28;5005373;28;20030;-74
2022/11/30 02:15:48;;;;;;;36.40;23.65;;;;;;;5.67;88.33;101225.59;5007406;28;20484;-74
2022/11/30 02:18:21;;;;;;;36.47;23.23;;;;;;;5.66;88.97;101217.72;5002618;28;20078;-74
2022/11/30 02:21:04;;;;;;;32.53;22.67;;;;;;;5.63;89.29;101220.25;5008996;28;20083;-74
2022/11/30 02:24:10;;;;;;;36.88;23.73;;;;;;;5.61;89.26;101221.97;5008213;28;20046;-74
2022/11/30 02:26:59;;;;;;;35.53;23.13;;;;;;;5.60;89.85;101233.25;5007201;28;20030;-74
2022/11/30 02:29:31;;;;;;;32.42;21.10;;;;;;;5.59;89.38;101227.16;5011553;28;20033;-74
2022/11/30 02:32:06;;;;;;;35.38;23.42;;;;;;;5.57;89.54;101238.44;5008981;28;20442;-74
2022/11/30 02:34:35;;;;;;;34.35;21.10;;;;;;;5.51;89.88;101233.03;5003784;28;20097;-74
2022/11/30 02:37:03;;;;;;;34.97;22.85;;;;;;;5.47;89.96;101230.31;5002860;28;20504;-74
2022/11/30 02:39:28;;;;;;;35.25;22.48;;;;;;;5.43;90.12;101232.84;4986303;28;20052;-74
2022/11/30 02:41:54;;;;;;;32.42;21.05;;;;;;;5.39;90.03;101230.97;5003407;28;20497;-74
2022/11/30 02:44:21;;;;;;;31.63;21.60;;;;;;;5.33;90.57;101236.94;5002577;28;20405;-74
2022/11/30 02:46:58;;;;;;;32.13;21.23;;;;;;;5.29;90.76;101240.31;5004561;28;20113;-74
2022/11/30 02:49:56;;;;;;;31.55;22.10;;;;;;;5.28;91.13;101244.66;5002619;28;20456;-74
2022/11/30 02:52:25;;;;;;;32.50;22.17;;;;;;;5.23;91.36;101243.66;4989577;28;20045;-74
2022/11/30 02:54:51;;;;;;;33.13;22.42;;;;;;;5.20;91.51;101233.13;5001199;28;20105;-74
2022/11/30 02:57:17;;;;;;;34.13;22.30;;;;;;;5.20;91.53;101240.09;5004846;28;20038;-74
2022/11/30 02:59:42;;;;;;;32.38;21.92;;;;;;;5.19;91.56;101244.44;5003416;28;20083;-74
2022/11/30 03:02:07;;;;;;;32.40;21.80;;;;;;;5.18;91.41;101252.22;5006338;28;20568;-74
2022/11/30 03:04:33;;;;;;;32.33;21.55;;;;;;;5.14;91.38;101246.03;5003411;28;20037;-74
2022/11/30 03:06:58;;;;;;;34.47;21.42;;;;;;;5.12;91.58;101255.56;5002788;28;20076;-74
2022/11/30 03:09:23;;;;;;;32.72;22.02;;;;;;;5.07;91.74;101265.03;5004142;28;20073;-74
2022/11/30 03:11:49;;;;;;;32.55;21.80;;;;;;;5.04;91.45;101260.59;5001285;28;20110;-74
2022/11/30 03:14:14;;;;;;;32.38;21.50;;;;;;;5.00;92.07;101263.06;5003506;28;20117;-74
2022/11/30 03:16:39;;;;;;;36.83;23.25;;;;;;;5.02;91.99;101269.25;5003993;28;20045;-74
2022/11/30 03:19:05;;;;;;;34.33;21.90;;;;;;;5.00;92.05;101263.06;5002820;28;20110;-74
2022/11/30 03:21:30;;;;;;;35.65;22.95;;;;;;;4.97;92.16;101270.84;5001687;28;20038;-74
2022/11/30 03:23:55;;;;;;;32.53;21.33;;;;;;;4.93;92.68;101271.59;5003851;28;20029;-74
2022/11/30 03:26:21;;;;;;;34.47;21.52;;;;;;;4.93;92.34;101275.09;5003513;28;20164;-74
2022/11/30 03:28:46;;;;;;;33.28;21.30;;;;;;;4.92;92.49;101280.28;5003541;28;20128;-74
2022/11/30 03:31:12;;;;;;;32.53;21.33;;;;;;;4.89;92.89;101285.44;5001774;28;20038;-74
2022/11/30 03:33:41;;;;;;;32.03;19.77;;;;;;;4.89;92.99;101282.81;4999131;28;20035;-74
2022/11/30 03:36:08;;;;;;;33.05;21.92;;;;;;;4.88;92.64;101286.28;5003544;28;20041;-74
2022/11/30 03:38:33;;;;;;;32.13;20.38;;;;;;;4.86;93.03;101277.50;5003355;28;20034;-74
2022/11/30 03:41:05;;;;;;;32.90;21.75;;;;;;;4.83;92.88;101281.78;5000501;28;20128;-74
2022/11/30 03:43:30;;;;;;;34.03;21.13;;;;;;;4.82;93.17;101285.25;5001947;28;20073;-74
2022/11/30 03:45:56;;;;;;;32.95;21.58;;;;;;;4.86;92.90;101294.06;4982734;28;20474;-74
2022/11/30 03:48:22;;;;;;;33.10;23.73;;;;;;;4.81;92.94;101286.09;5003799;28;20026;-74
2022/11/30 03:50:49;;;;;;;36.20;24.33;;;;;;;4.82;93.77;101285.25;5008792;28;20057;-73
2022/11/30 03:53:18;;;;;;;32.72;21.83;;;;;;;4.86;93.27;101287.97;5007418;28;20096;-74
2022/11/30 03:55:43;;;;;;;38.08;23.55;;;;;;;4.88;93.44;101292.41;5042956;22;20149;-78
2022/11/30 03:58:09;;;;;;;37.35;23.35;;;;;;;4.90;93.15;101293.34;5039322;28;20555;-77
2022/11/30 04:00:34;;;;;;;36.55;23.08;;;;;;;4.88;93.02;101287.16;5042049;28;20041;-78
2022/11/30 04:03:00;;;;;;;34.83;23.55;;;;;;;4.84;93.01;101286.16;5039413;28;20072;-78
2022/11/30 04:05:25;;;;;;;33.22;20.52;;;;;;;4.82;93.13;101287.88;5039414;28;20061;-76
2022/11/30 04:07:50;;;;;;;36.55;23.90;;;;;;;4.84;93.08;101288.78;5042171;28;20029;-78
2022/11/30 04:10:16;;;;;;;30.50;21.40;;;;;;;4.84;93.09;101288.78;5040756;28;20038;-78
2022/11/30 04:12:41;;;;;;;35.53;23.13;;;;;;;4.86;93.41;101293.19;5040574;28;20063;-77
2022/11/30 04:15:07;;;;;;;36.25;24.95;;;;;;;4.82;93.04;101290.50;5041473;28;20123;-77
2022/11/30 04:17:32;;;;;;;38.85;26.02;;;;;;;4.84;93.47;101283.56;5042295;28;20036;-78
2022/11/30 04:19:58;;;;;;;35.92;23.60;;;;;;;4.81;92.92;101283.47;5039345;28;20049;-78
2022/11/30 04:22:23;;;;;;;34.42;24.05;;;;;;;4.81;93.13;101288.69;5039090;28;20029;-77
2022/11/30 04:24:48;;;;;;;37.05;25.73;;;;;;;4.81;92.77;101288.69;5041712;28;20615;-77
2022/11/30 04:27:13;;;;;;;40.47;23.02;;;;;;;4.79;93.08;101285.19;5038440;28;20025;-77
2022/11/30 04:29:39;;;;;;;35.75;21.63;;;;;;;4.79;92.94;101284.25;5041628;28;20645;-78
2022/11/30 04:32:04;;;;;;;31.70;20.27;;;;;;;4.78;92.95;101286.00;5039988;28;20458;-77
2022/11/30 04:34:30;;;;;;;28.90;18.88;;;;;;;4.78;92.87;101288.63;5038665;28;20454;-78
2022/11/30 04:36:56;;;;;;;30.35;20.27;;;;;;;4.78;92.46;101280.78;5006053;28;20029;-77
2022/11/30 04:39:21;;;;;;;30.67;20.95;;;;;;;4.74;92.74;101284.16;5042110;28;20033;-78
2022/11/30 04:41:46;;;;;;;31.02;20.38;;;;;;;4.73;92.72;101284.09;5040093;28;20492;-78
2022/11/30 04:44:12;;;;;;;30.50;19.58;;;;;;;4.74;92.47;101291.09;5042665;28;20041;-78
2022/11/30 04:46:37;;;;;;;29.90;19.58;;;;;;;4.71;93.12;101294.50;5041224;28;20115;-78
2022/11/30 04:49:02;;;;;;;30.05;20.35;;;;;;;4.71;92.69;101286.66;5039643;28;20038;-78
2022/11/30 04:51:28;;;;;;;34.65;21.20;;;;;;;4.71;92.41;101291.88;5030600;28;20096;-77
2022/11/30 04:53:53;;;;;;;31.05;20.00;;;;;;;4.70;93.18;101291.84;5040775;28;20029;-78
2022/11/30 04:56:18;;;;;;;31.90;19.55;;;;;;;4.68;92.84;101297.03;4993228;28;20147;-78
2022/11/30 04:58:44;;;;;;;29.20;19.42;;;;;;;4.69;92.94;101297.91;5040959;28;20116;-77
2022/11/30 05:01:09;;;;;;;32.85;20.55;;;;;;;4.66;92.29;101306.53;5039554;28;20061;-76
2022/11/30 05:03:34;;;;;;;30.60;20.27;;;;;;;4.67;92.88;101300.50;5012127;28;20065;-77
2022/11/30 05:06:00;;;;;;;34.35;23.08;;;;;;;4.65;92.48;101307.41;5039497;28;20032;-77
2022/11/30 05:08:25;;;;;;;35.50;22.17;;;;;;;4.64;93.07;101305.63;5038867;28;20040;-77
2022/11/30 05:10:52;;;;;;;28.80;18.88;;;;;;;4.65;92.58;101302.16;5041884;28;20090;-77
2022/11/30 05:13:17;;;;;;;33.17;21.30;;;;;;;4.61;92.51;101314.28;5042491;28;20536;-77
2022/11/30 05:15:44;;;;;;;30.90;20.45;;;;;;;4.61;92.51;101305.50;5026501;28;20029;-77
2022/11/30 05:18:09;;;;;;;30.85;20.38;;;;;;;4.64;92.32;101310.88;5043451;28;20044;-77
2022/11/30 05:20:35;;;;;;;28.90;19.58;;;;;;;4.61;92.03;101321.19;5045815;28;20025;-78
2022/11/30 05:23:00;;;;;;;26.95;19.77;;;;;;;4.59;92.27;101320.28;5022660;28;20562;-77
2022/11/30 05:25:25;;;;;;;30.90;20.08;;;;;;;4.52;92.52;101320.94;5036974;28;20071;-77
2022/11/30 05:27:51;;;;;;;28.60;19.58;;;;;;;4.48;92.20;101319.97;5043602;28;20104;-77
2022/11/30 05:30:16;;;;;;;28.83;19.92;;;;;;;4.44;92.10;101323.31;5043874;28;20653;-77
2022/11/30 05:32:41;;;;;;;31.80;20.80;;;;;;;4.39;92.36;101317.94;5039637;28;20123;-77
2022/11/30 05:35:07;;;;;;;32.42;20.75;;;;;;;4.38;92.17;101324.00;5037842;28;20140;-77
2022/11/30 05:37:33;;;;;;;31.15;21.67;;;;;;;4.33;91.96;101329.94;5038717;28;20112;-77
2022/11/30 05:39:58;;;;;;;29.55;20.35;;;;;;;4.24;91.65;101325.28;5037508;28;20044;-77
2022/11/30 05:42:23;;;;;;;29.35;19.15;;;;;;;4.17;92.12;101337.28;5042757;28;20098;-77
2022/11/30 05:44:49;;;;;;;28.90;19.85;;;;;;;4.09;92.31;101336.13;5041919;28;20037;-77
2022/11/30 05:47:15;;;;;;;30.02;20.58;;;;;;;4.02;92.48;101338.50;5037152;28;20037;-77
2022/11/30 05:49:40;;;;;;;30.25;19.08;;;;;;;3.90;92.79;101329.41;5037166;28;20559;-77
2022/11/30 05:52:06;;;;;;;30.17;19.85;;;;;;;3.85;92.97;101332.69;5040566;28;20124;-77
2022/11/30 05:54:32;;;;;;;29.17;18.70;;;;;;;3.80;93.01;101329.03;5038431;28;20144;-77
2022/11/30 05:56:58;;;;;;;28.85;18.60;;;;;;;3.71;92.81;101337.44;5044073;28;20061;-75
2022/11/30 05:59:23;;;;;;;29.35;18.70;;;;;;;3.63;93.01;101338.91;5037716;28;20073;-77
2022/11/30 06:01:50;;;;;;;41.92;27.45;;;;;;;3.54;93.22;101343.78;5040351;28;20079;-77
2022/11/30 06:04:16;;;;;;;38.63;23.33;;;;;;;3.44;93.56;101338.25;5041120;28;20038;-77
2022/11/30 06:06:41;;;;;;;33.53;20.92;;;;;;;3.36;93.71;101350.16;5041640;28;20025;-76
2022/11/30 06:09:07;;;;;;;32.63;20.17;;;;;;;3.29;93.74;101358.56;5041635;28;20095;-77
2022/11/30 06:11:32;;;;;;;24.70;12.15;;;;;;;3.19;94.47;101353.84;5044473;28;20063;-77
2022/11/30 06:13:57;;;;;;;23.70;11.52;;;;;;;3.07;94.72;101357.78;5044766;28;20473;-77
2022/11/30 06:16:22;;;;;;;20.55;11.23;;;;;;;3.00;94.85;101363.59;5041807;28;20033;-77
2022/11/30 06:18:48;;;;;;;24.55;11.10;;;;;;;2.93;95.48;101372.00;5010719;28;20055;-76
2022/11/30 06:21:13;;;;;;;19.80;10.70;;;;;;;2.82;95.54;101366.38;5041912;28;20396;-77
2022/11/30 06:23:38;;;;;;;20.02;10.18;;;;;;;2.75;95.93;101363.47;5039871;28;20107;-77
2022/11/30 06:26:05;;;;;;;21.52;10.38;;;;;;;2.67;96.73;101364.91;5042008;28;20037;-77
2022/11/30 06:28:31;;;;;;;23.00;11.00;;;;;;;2.58;97.21;101365.44;5042297;28;20033;-78
2022/11/30 06:31:01;;;;;;;21.60;10.57;;;;;;;2.56;97.64;101365.34;5043104;28;20083;-77
2022/11/30 06:33:27;;;;;;;24.08;11.73;;;;;;;2.54;97.18;101369.66;5040707;28;20037;-78
2022/11/30 06:35:53;;;;;;;21.42;10.73;;;;;;;2.51;97.31;101372.09;5044054;28;20037;-78
2022/11/30 06:38:18;;;;;;;21.85;10.50;;;;;;;2.49;96.96;101373.78;5041421;28;20057;-76
2022/11/30 06:40:44;;;;;;;21.63;9.98;;;;;;;2.47;97.26;101377.16;5041849;28;20061;-76
2022/11/30 06:43:09;;;;;;;17.77;10.27;;;;;;;2.42;97.60;101374.34;5042406;28;20041;-77
2022/11/30 06:45:35;;;;;;;18.17;10.18;;;;;;;2.34;97.53;101375.75;5024261;28;20075;-77
2022/11/30 06:48:00;;;;;;;16.10;9.55;;;;;;;2.26;98.01;101377.19;5043762;28;20131;-77
2022/11/30 06:50:25;;;;;;;21.92;9.98;;;;;;;2.24;97.95;101384.03;5041052;28;20044;-77
2022/11/30 06:52:51;;;;;;;19.85;9.65;;;;;;;2.19;97.90;101392.53;5044229;28;20391;-77
2022/11/30 06:55:16;;;;;;;20.55;7.93;;;;;;;2.17;97.92;101390.69;5040956;28;20041;-77
2022/11/30 06:57:42;;;;;;;20.60;7.75;;;;;;;2.18;98.05;101401.19;5024799;28;20044;-77
2022/11/30 07:00:08;;;;;;;315.02;109.97;;;;;;;2.18;98.26;101398.56;5042463;28;20039;-77
2022/11/30 07:02:33;;;;;;;1008.75;508.30;;;;;;;2.16;97.99;101405.44;5042967;28;20037;-78
2022/11/30 07:04:59;;;;;;;32.47;19.33;;;;;;;2.16;98.10;101400.22;5037748;28;20434;-76
2022/11/30 07:07:26;;;;;;;30.40;18.08;;;;;;;2.16;98.14;101408.03;5036340;28;20391;-77
2022/11/30 07:09:52;;;;;;;26.88;16.73;;;;;;;2.16;98.37;101408.03;5043231;28;20036;-77
2022/11/30 07:12:17;;;;;;;30.27;17.02;;;;;;;2.13;98.62;101410.50;5040508;28;20033;-76
2022/11/30 07:14:42;;;;;;;29.02;16.35;;;;;;;2.08;98.47;101409.44;5040059;28;20112;-77
2022/11/30 07:17:08;;;;;;;32.33;18.10;;;;;;;2.09;98.80;101407.72;5038762;28;20037;-78
2022/11/30 07:19:33;;;;;;;27.88;16.67;;;;;;;2.09;98.80;101418.13;5042811;28;20032;-76
2022/11/30 07:21:59;;;;;;;24.77;15.23;;;;;;;2.10;98.80;101415.59;5040322;28;20545;-77
2022/11/30 07:27:08;;;;;;;28.50;17.17;;;;;;;2.12;98.99;101416.56;5038917;28;20216;-77
2022/11/30 07:29:34;;;;;;;26.70;16.45;;;;;;;2.17;99.00;101421.94;5043252;28;20112;-77
2022/11/30 07:31:59;;;;;;;27.20;15.98;;;;;;;2.20;99.15;101419.44;5040849;28;20175;-77
2022/11/30 07:34:24;;;;;;;30.92;17.38;;;;;;;2.24;98.88;101425.69;5039993;28;20078;-77
2022/11/30 07:36:50;;;;;;;27.67;16.50;;;;;;;2.28;98.85;101430.19;5040644;28;20033;-76
2022/11/30 07:39:15;;;;;;;77.88;41.40;;;;;;;2.32;98.96;101434.72;5040722;28;20041;-77
2022/11/30 07:41:41;;;;;;;41.15;23.70;;;;;;;2.37;98.67;101428.88;5043114;28;20033;-78
2022/11/30 07:44:08;;;;;;;31.25;18.67;;;;;;;2.40;98.49;101439.41;5014660;28;20113;-76
2022/11/30 07:46:35;;;;;;;30.40;16.52;;;;;;;2.41;98.30;101440.28;5039725;28;20036;-77
2022/11/30 07:49:05;;;;;;;30.88;18.13;;;;;;;2.41;97.87;101435.09;5041658;28;20125;-77
2022/11/30 07:51:31;;;;;;;29.70;17.45;;;;;;;2.41;98.40;101438.59;5042440;28;20041;-77
2022/11/30 07:53:57;;;;;;;29.55;18.40;;;;;;;2.40;98.29;101435.94;5039497;28;20039;-77
2022/11/30 07:56:24;;;;;;;28.63;16.98;;;;;;;2.39;98.99;101436.75;5042616;28;20426;-78
2022/11/30 07:58:52;;;;;;;30.42;18.02;;;;;;;2.42;98.73;101431.69;5040582;28;20037;-77
2022/11/30 08:01:22;;;;;;;27.80;17.52;;;;;;;2.42;99.14;101432.56;5038975;28;20053;-76
2022/11/30 08:03:49;;;;;;;30.38;18.10;;;;;;;2.43;98.92;101430.84;5041967;28;20033;-77
2022/11/30 08:06:19;;;;;;;31.13;18.98;;;;;;;2.48;99.14;101438.84;5037230;28;20091;-77
2022/11/30 08:08:44;;;;;;;33.35;19.40;;;;;;;2.50;99.21;101439.81;5040868;28;20496;-77
2022/11/30 08:11:13;;;;;;;30.15;18.48;;;;;;;2.52;99.14;101439.03;5040975;28;20041;-77
2022/11/30 08:13:38;;;;;;;28.95;16.00;;;;;;;2.51;99.01;101433.75;5024170;28;20032;-77
2022/11/30 08:16:07;;;;;;;32.00;19.48;;;;;;;2.52;99.51;101438.16;5042845;28;20040;-77
2022/11/30 08:18:32;;;;;;;25.90;14.70;;;;;;;2.53;99.29;101433.00;5042123;28;20185;-77
2022/11/30 08:20:59;;;;;;;30.25;17.80;;;;;;;2.54;99.77;101434.78;5040344;28;20053;-77
2022/11/30 08:23:27;;;;;;;27.88;17.13;;;;;;;2.58;99.90;101441.00;5028165;28;20036;-76
2022/11/30 08:25:52;;;;;;;28.40;17.25;;;;;;;2.60;100.00;101436.75;5038065;28;20028;-77
2022/11/30 08:28:18;;;;;;;31.40;16.60;;;;;;;2.62;99.92;101436.00;5039147;28;20539;-77
2022/11/30 08:30:43;;;;;;;27.98;16.42;;;;;;;2.66;100.00;101442.22;5024922;28;20475;-76
2022/11/30 08:33:08;;;;;;;28.48;17.40;;;;;;;2.72;100.00;101441.56;5040175;28;20389;-77
2022/11/30 08:35:33;;;;;;;29.27;16.73;;;;;;;2.75;99.97;101437.38;5040015;28;20522;-77
2022/11/30 08:37:59;;;;;;;28.17;17.35;;;;;;;2.89;100.00;101445.75;5040089;28;20476;-77
2022/11/30 08:40:24;;;;;;;31.52;19.27;;;;;;;2.96;100.00;101441.63;5040401;28;20525;-77
2022/11/30 08:42:49;;;;;;;25.88;17.17;;;;;;;3.07;99.98;101441.25;5039034;28;20080;-77
2022/11/30 08:45:15;;;;;;;32.53;17.98;;;;;;;3.20;99.52;101441.72;5038978;28;20095;-77
2022/11/30 08:47:40;;;;;;;29.67;17.73;;;;;;;3.31;99.39;101443.00;5039395;28;20025;-78
2022/11/30 08:50:06;;;;;;;31.95;18.33;;;;;;;3.41;98.46;101452.09;5041475;28;20056;-77
2022/11/30 08:52:31;;;;;;;29.70;17.38;;;;;;;3.49;98.32;101446.31;5013619;28;20029;-77
2022/11/30 08:54:56;;;;;;;30.40;17.80;;;;;;;3.61;97.89;101445.84;5043823;28;20112;-77
2022/11/30 08:57:22;;;;;;;28.45;18.02;;;;;;;3.71;97.05;101447.09;5012661;28;20511;-77
2022/11/30 08:59:48;;;;;;;30.85;18.63;;;;;;;3.77;96.30;101449.91;5045994;28;20029;-77
2022/11/30 09:02:18;;;;;;;28.70;18.10;;;;;;;3.81;96.10;101441.38;5042749;28;20042;-77
2022/11/30 09:04:46;;;;;;;34.13;20.10;;;;;;;3.89;95.86;101447.75;5042412;28;20589;-76
2022/11/30 09:07:12;;;;;;;32.53;20.80;;;;;;;3.93;95.88;101448.78;5043949;28;20056;-77
2022/11/30 09:09:38;;;;;;;27.55;17.98;;;;;;;3.91;94.78;101450.44;5025241;28;20041;-77
2022/11/30 09:12:03;;;;;;;29.73;17.77;;;;;;;3.92;94.32;101449.59;5045931;28;20116;-77
2022/11/30 09:14:29;;;;;;;29.70;19.02;;;;;;;4.06;94.28;101455.28;5042588;28;20523;-78
2022/11/30 09:16:54;;;;;;;30.55;18.65;;;;;;;4.25;94.05;101455.13;5044782;28;20029;-77
2022/11/30 09:19:20;;;;;;;14.05;11.57;;;;;;;4.26;92.86;101454.25;5042335;28;20591;-77
2022/11/30 09:21:46;;;;;;;17.35;12.10;;;;;;;4.29;92.57;101464.81;5025640;28;20959;-77
2022/11/30 09:24:11;;;;;;;16.67;12.85;;;;;;;4.40;92.63;101462.56;5044878;28;20148;-78
2022/11/30 09:26:36;;;;;;;19.60;14.10;;;;;;;4.49;91.83;101459.38;5041764;28;20111;-77
2022/11/30 09:29:02;;;;;;;17.40;13.38;;;;;;;4.59;91.95;101470.19;5040233;28;20400;-77
2022/11/30 09:31:28;;;;;;;17.85;11.93;;;;;;;4.68;91.38;101463.50;5040665;28;20091;-77
2022/11/30 09:33:55;;;;;;;17.30;13.20;;;;;;;4.67;90.05;101457.38;5042273;28;20119;-77
2022/11/30 09:36:22;;;;;;;17.63;13.13;;;;;;;4.68;90.52;101464.38;5043254;28;20117;-77
2022/11/30 09:38:48;;;;;;;17.65;13.73;;;;;;;4.69;90.76;101466.19;5042727;28;20041;-77
2022/11/30 09:41:52;;;;;;;14.68;11.82;;;;;;;4.75;89.98;101476.81;5045700;28;20032;-77
2022/11/30 09:44:50;;;;;;;15.77;11.90;;;;;;;4.72;89.53;101476.72;5041860;28;20057;-77
2022/11/30 09:47:52;;;;;;;16.08;11.77;;;;;;;4.68;89.19;101481.81;5043608;28;20036;-77
2022/11/30 09:50:21;;;;;;;16.42;12.57;;;;;;;4.68;89.80;101477.44;5007315;28;20041;-78
2022/11/30 09:52:55;;;;;;;16.35;11.63;;;;;;;4.72;90.39;101479.34;5044046;28;20037;-77
2022/11/30 09:55:28;;;;;;;15.50;12.25;;;;;;;4.71;89.18;101477.53;5041585;28;20436;-77
2022/11/30 09:58:01;;;;;;;18.42;13.57;;;;;;;4.70;89.77;101481.00;5055022;22;20610;-75
2022/11/30 10:00:26;;;;;;;;;;;;;;;4.71;89.32;101474.94;5024558;28;20044;-75
2022/11/30 10:02:55;;;;;;;17.83;12.57;;;;;;;4.72;89.51;101471.50;5021914;28;19917;-75
2022/11/30 10:05:25;;;;;;;15.40;11.32;;;;;;;4.75;89.15;101468.97;5017937;28;20038;-75
2022/11/30 10:08:18;;;;;;;14.70;11.15;;;;;;;4.79;89.30;101468.25;5023749;28;20029;-75
2022/11/30 10:10:51;;;;;;;;;;;;;;;4.80;88.62;101469.13;5029463;28;20120;-75
2022/11/30 10:13:49;;;;;;;16.58;11.93;;;;;;;4.83;88.70;101462.25;5027799;28;20411;-75
2022/11/30 10:16:26;;;;;;;16.40;12.13;;;;;;;4.92;88.36;101476.47;5024780;28;20064;-75
2022/11/30 10:19:25;;;;;;;17.73;12.18;;;;;;;4.93;87.67;101463.44;5003934;28;20045;-75
2022/11/30 10:22:04;;;;;;;14.95;11.10;;;;;;;4.89;88.08;101468.53;5022811;28;20033;-75
2022/11/30 10:25:13;;;;;;;16.80;12.50;;;;;;;4.95;88.26;101453.94;5021544;28;20046;-75
2022/11/30 10:27:52;;;;;;;14.93;10.95;;;;;;;4.98;87.76;101453.13;5019474;28;20049;-75
2022/11/30 10:30:23;;;;;;;15.77;11.10;;;;;;;4.97;88.00;101456.56;5025923;28;20038;-75
2022/11/30 10:32:53;;;;;;;14.43;11.15;;;;;;;5.02;88.00;101458.50;5004763;28;20054;-75
2022/11/30 10:35:33;;;;;;;17.05;13.05;;;;;;;5.12;88.16;101451.81;5020971;28;20038;-76
2022/11/30 10:38:08;;;;;;;14.30;11.25;;;;;;;5.14;87.22;101457.13;5024587;28;20034;-75
2022/11/30 10:40:42;;;;;;;16.58;11.50;;;;;;;5.12;87.04;101451.81;5021700;28;20608;-75
2022/11/30 10:43:46;;;;;;;15.52;11.38;;;;;;;5.15;86.80;101451.03;5022361;28;20488;-75
2022/11/30 10:46:27;;;;;;;16.35;12.57;;;;;;;5.25;87.30;101445.25;4993487;28;20068;-75
2022/11/30 10:49:10;;;;;;;15.18;11.18;;;;;;;5.40;87.59;101442.19;5021435;28;20040;-75
2022/11/30 10:51:38;;;;;;;14.32;11.05;;;;;;;5.44;87.01;101444.03;5022891;28;20140;-75
2022/11/30 10:54:13;;;;;;;15.55;11.73;;;;;;;5.48;86.22;101444.19;5034848;28;20037;-75
2022/11/30 10:56:38;;;;;;;14.40;11.32;;;;;;;5.56;86.47;101444.41;5024010;28;20500;-75
2022/11/30 10:59:18;;;;;;;12.80;10.02;;;;;;;5.67;85.58;101440.34;5017851;28;20042;-75
2022/11/30 11:01:43;;;;;;;14.35;10.68;;;;;;;5.70;85.36;101437.81;5021197;28;20480;-76
2022/11/30 11:04:24;;;;;;;14.75;11.82;;;;;;;5.80;85.03;101444.22;5023839;28;20117;-75
2022/11/30 11:06:53;;;;;;;15.63;11.05;;;;;;;5.87;85.42;101435.69;5027308;28;20053;-75
2022/11/30 11:09:35;;;;;;;15.80;11.40;;;;;;;5.95;85.17;101435.94;5027521;28;20713;-75
2022/11/30 11:12:05;;;;;;;17.30;12.13;;;;;;;6.00;84.89;101434.31;5020571;28;20488;-75
2022/11/30 11:14:31;;;;;;;13.73;10.80;;;;;;;5.97;83.86;101431.59;5027971;28;20107;-76
2022/11/30 11:17:05;;;;;;;13.55;10.43;;;;;;;6.05;82.97;101432.72;5026684;28;20536;-75
2022/11/30 11:19:36;;;;;;;15.18;11.48;;;;;;;6.18;83.33;101435.63;5027585;28;20033;-75
2022/11/30 11:22:25;;;;;;;13.40;10.18;;;;;;;6.32;82.20;101436.91;5030482;28;20037;-75
2022/11/30 11:25:05;;;;;;;12.80;9.85;;;;;;;6.37;81.36;101430.03;5023360;28;20041;-75